createdAt,value
2023-04-06T00:02:02.567Z,94696.69
2023-04-06T00:04:29.342Z,94694.06
2023-04-06T00:06:58.798Z,94683.50
2023-04-06T00:09:27.606Z,94679.81
2023-04-06T00:12:06.431Z,94680.38
2023-04-06T00:14:37.112Z,94677.38
2023-04-06T00:17:09.560Z,94676.59
2023-04-06T00:20:08.519Z,94679.00
2023-04-06T00:22:41.254Z,94666.81
2023-04-06T00:25:09.433Z,94671.88
2023-04-06T00:27:37.982Z,94663.97
2023-04-06T00:30:09.730Z,94667.19
2023-04-06T00:32:37.370Z,94669.00
2023-04-06T00:35:10.971Z,94657.63
2023-04-06T00:37:40.598Z,94660.28
2023-04-06T00:40:11.011Z,94664.53
2023-04-06T00:42:42.414Z,94660.28
2023-04-06T00:45:10.944Z,94661.06
2023-04-06T00:47:39.205Z,94658.66
2023-04-06T00:50:08.774Z,94651.78
2023-04-06T00:52:36.891Z,94652.81
2023-04-06T00:55:10.108Z,94652.81
2023-04-06T00:57:38.778Z,94653.38
2023-04-06T01:00:06.228Z,94661.38
2023-04-06T01:02:34.293Z,94653.06
2023-04-06T01:05:03.441Z,94654.25
2023-04-06T01:07:33.061Z,94655.94
2023-04-06T01:10:03.886Z,94656.00
2023-04-06T01:12:33.735Z,94654.72
2023-04-06T01:15:00.798Z,94642.47
2023-04-06T01:17:29.647Z,94644.25
2023-04-06T01:19:56.574Z,94640.53
2023-04-06T01:22:26.289Z,94631.97
2023-04-06T01:24:57.723Z,94637.59
2023-04-06T01:27:29.098Z,94635.09
2023-04-06T01:30:00.411Z,94637.31
2023-04-06T01:32:30.440Z,94635.81
2023-04-06T01:34:57.181Z,94626.47
2023-04-06T01:37:24.003Z,94627.63
2023-04-06T01:39:53.839Z,94628.19
2023-04-06T01:42:20.997Z,94630.97
2023-04-06T01:44:47.687Z,94630.56
2023-04-06T01:47:14.434Z,94628.25
2023-04-06T01:49:43.342Z,94625.41
2023-04-06T01:52:12.200Z,94627.81
2023-04-06T01:54:38.912Z,94618.41
2023-04-06T01:57:08.034Z,94606.00
2023-04-06T01:59:36.934Z,94614.53
2023-04-06T02:02:08.304Z,94611.44
2023-04-06T02:04:34.973Z,94612.03
2023-04-06T02:07:06.293Z,94602.03
2023-04-06T02:09:35.575Z,94612.38
2023-04-06T02:12:04.380Z,94611.56
2023-04-06T02:14:31.212Z,94608.47
2023-04-06T02:16:58.041Z,94605.25
2023-04-06T02:19:28.023Z,94601.16
2023-04-06T02:21:59.872Z,94600.34
2023-04-06T02:24:28.848Z,94603.78
2023-04-06T02:26:55.968Z,94609.66
2023-04-06T02:29:22.762Z,94605.41
2023-04-06T02:31:54.231Z,94610.69
2023-04-06T02:34:23.087Z,94609.66
2023-04-06T02:36:49.736Z,94605.16
2023-04-06T02:39:18.720Z,94605.97
2023-04-06T02:41:45.715Z,94603.56
2023-04-06T02:44:15.755Z,94610.69
2023-04-06T02:46:44.625Z,94599.09
2023-04-06T02:49:15.943Z,94603.34
2023-04-06T02:51:44.821Z,94596.22
2023-04-06T02:54:13.805Z,94602.31
2023-04-06T02:56:42.803Z,94598.06
2023-04-06T02:59:15.085Z,94607.59
2023-04-06T03:01:43.890Z,94597.81
2023-04-06T03:04:12.953Z,94604.53
2023-04-06T03:06:41.741Z,94596.59
2023-04-06T03:09:10.799Z,94595.81
2023-04-06T03:11:42.799Z,94598.22
2023-04-06T03:14:09.538Z,94598.22
2023-04-06T03:16:38.411Z,94606.72
2023-04-06T03:19:08.020Z,94601.44
2023-04-06T03:21:34.814Z,94603.03
2023-04-06T03:24:03.627Z,94595.34
2023-04-06T03:26:32.426Z,94600.41
2023-04-06T03:29:01.744Z,94604.66
2023-04-06T03:31:28.570Z,94592.47
2023-04-06T03:33:57.666Z,94594.06
2023-04-06T03:36:24.372Z,94592.47
2023-04-06T03:38:51.045Z,94598.56
2023-04-06T03:41:20.531Z,94603.84
2023-04-06T03:43:52.562Z,94599.34
2023-04-06T03:46:21.590Z,94594.31
2023-04-06T03:48:51.936Z,94601.44
2023-04-06T03:51:18.662Z,94590.84
2023-04-06T03:53:48.556Z,94591.88
2023-04-06T03:56:17.434Z,94594.53
2023-04-06T03:58:46.412Z,94593.75
2023-04-06T04:01:15.232Z,94594.53
2023-04-06T04:03:44.481Z,94592.47
2023-04-06T04:06:13.342Z,94596.16
2023-04-06T04:08:42.408Z,94600.06
2023-04-06T04:11:11.273Z,94603.50
2023-04-06T04:13:37.991Z,94603.03
2023-04-06T04:16:10.005Z,94601.44
2023-04-06T04:18:37.756Z,94603.03
2023-04-06T04:21:04.663Z,94594.06
2023-04-06T04:23:35.318Z,94594.06
2023-04-06T04:26:05.556Z,94600.19
2023-04-06T04:28:32.326Z,94602.59
2023-04-06T04:31:01.532Z,94613.19
2023-04-06T04:33:30.547Z,94604.44
2023-04-06T04:35:59.451Z,94599.16
2023-04-06T04:38:31.298Z,94597.31
2023-04-06T04:41:02.751Z,94604.22
2023-04-06T04:43:34.032Z,94605.81
2023-04-06T04:46:00.677Z,94607.91
2023-04-06T04:48:29.635Z,94598.94
2023-04-06T04:50:58.996Z,94600.75
2023-04-06T04:53:28.754Z,94601.00
2023-04-06T04:55:57.565Z,94606.28
2023-04-06T04:58:26.417Z,94599.34
2023-04-06T05:00:55.417Z,94605.69
2023-04-06T05:03:30.514Z,94598.00
2023-04-06T05:05:57.227Z,94596.16
2023-04-06T05:08:23.939Z,94600.41
2023-04-06T05:10:50.664Z,94593.28
2023-04-06T05:15:58.168Z,94591.44
2023-04-06T05:18:27.877Z,94599.47
2023-04-06T05:20:59.782Z,94606.50
2023-04-06T05:23:26.441Z,94609.38
2023-04-06T05:25:56.388Z,94613.09
2023-04-06T05:28:23.401Z,94617.16
2023-04-06T05:30:52.339Z,94617.13
2023-04-06T05:33:21.349Z,94612.69
2023-04-06T05:35:53.298Z,94610.59
2023-04-06T05:38:22.300Z,94618.78
2023-04-06T05:43:32.395Z,94610.28
2023-04-06T05:46:01.478Z,94608.59
2023-04-06T05:48:32.879Z,94606.00
2023-04-06T05:51:01.454Z,94599.63
2023-04-06T05:53:30.206Z,94606.56
2023-04-06T05:56:03.633Z,94599.53
2023-04-06T05:58:35.572Z,94598.19
2023-04-06T06:01:02.464Z,94592.00
2023-04-06T06:03:31.339Z,94598.75
2023-04-06T06:06:05.600Z,94590.59
2023-04-06T06:08:34.620Z,94587.69
2023-04-06T06:11:03.441Z,94592.88
2023-04-06T06:13:36.221Z,94598.88
2023-04-06T06:16:06.247Z,94596.38
2023-04-06T06:18:35.458Z,94591.81
2023-04-06T06:21:02.103Z,94590.94
2023-04-06T06:23:28.818Z,94597.50
2023-04-06T06:25:57.678Z,94594.00
2023-04-06T06:28:26.540Z,94591.00
2023-04-06T06:30:53.214Z,94592.94
2023-04-06T06:33:22.138Z,94596.16
2023-04-06T06:35:53.589Z,94588.38
2023-04-06T06:38:25.037Z,94591.94
2023-04-06T06:40:51.838Z,94601.59
2023-04-06T06:43:20.965Z,94587.13
2023-04-06T06:45:53.511Z,94596.66
2023-04-06T06:48:22.565Z,94601.50
2023-04-06T06:50:51.880Z,94597.81
2023-04-06T06:53:20.966Z,94599.56
2023-04-06T06:55:49.848Z,94595.91
2023-04-06T06:58:21.452Z,94597.03
2023-04-06T07:00:50.973Z,94593.94
2023-04-06T07:03:18.416Z,94597.16
2023-04-06T07:05:54.367Z,94594.28
2023-04-06T07:08:24.833Z,94582.22
2023-04-06T07:10:53.767Z,94573.03
2023-04-06T07:13:28.376Z,94585.78
2023-04-06T07:15:55.139Z,94581.06
2023-04-06T07:18:24.562Z,94579.00
2023-04-06T07:20:55.909Z,94574.31
2023-04-06T07:23:22.632Z,94585.47
2023-04-06T07:25:51.900Z,94580.75
2023-04-06T07:28:23.201Z,94585.78
2023-04-06T07:30:52.263Z,94578.47
2023-04-06T07:33:23.700Z,94577.63
2023-04-06T07:35:52.551Z,94584.06
2023-04-06T07:38:24.225Z,94590.19
2023-04-06T07:40:53.577Z,94582.00
2023-04-06T07:43:20.321Z,94585.25
2023-04-06T07:45:51.852Z,94583.16
2023-04-06T07:48:21.510Z,94576.25
2023-04-06T07:50:50.407Z,94573.94
2023-04-06T07:53:17.136Z,94581.66
2023-04-06T07:55:43.867Z,94579.00
2023-04-06T07:58:12.759Z,94566.81
2023-04-06T08:00:42.086Z,94581.19
2023-04-06T08:03:08.853Z,94577.75
2023-04-06T08:05:37.725Z,94575.34
2023-04-06T08:08:06.610Z,94565.78
2023-04-06T08:10:35.480Z,94576.59
2023-04-06T08:13:04.289Z,94565.22
2023-04-06T08:15:31.207Z,94573.72
2023-04-06T08:18:00.139Z,94577.41
2023-04-06T08:20:26.997Z,94570.50
2023-04-06T08:22:56.422Z,94581.09
2023-04-06T08:25:25.244Z,94577.88
2023-04-06T08:27:52.089Z,94591.09
2023-04-06T08:30:20.856Z,94584.78
2023-04-06T08:32:53.293Z,94581.75
2023-04-06T08:35:22.612Z,94574.09
2023-04-06T08:37:49.515Z,94570.97
2023-04-06T08:40:16.289Z,94574.78
2023-04-06T08:42:50.677Z,94567.44
2023-04-06T08:45:18.494Z,94583.53
2023-04-06T08:47:54.130Z,94570.78
2023-04-06T08:50:23.216Z,94582.50
2023-04-06T08:52:52.361Z,94583.19
2023-04-06T08:55:21.737Z,94583.06
2023-04-06T08:57:51.012Z,94581.47
2023-04-06T09:00:17.881Z,94570.19
2023-04-06T09:02:45.351Z,94564.28
2023-04-06T09:05:16.724Z,94566.84
2023-04-06T09:07:46.676Z,94566.03
2023-04-06T09:10:18.094Z,94572.13
2023-04-06T09:12:47.624Z,94570.06
2023-04-06T09:15:25.804Z,94562.69
2023-04-06T09:17:55.770Z,94574.41
2023-04-06T09:20:29.379Z,94558.75
2023-04-06T09:22:58.987Z,94562.56
2023-04-06T09:25:28.304Z,94547.94
2023-04-06T09:28:05.226Z,94551.63
2023-04-06T09:30:32.022Z,94550.59
2023-04-06T09:33:00.348Z,94554.06
2023-04-06T09:35:32.369Z,94560.47
2023-04-06T09:38:01.297Z,94558.03
2023-04-06T09:40:33.167Z,94562.44
2023-04-06T09:43:02.268Z,94550.22
2023-04-06T09:45:32.118Z,94560.34
2023-04-06T09:47:59.512Z,94556.88
2023-04-06T09:50:26.337Z,94559.59
2023-04-06T09:52:56.211Z,94556.88
2023-04-06T09:55:35.588Z,94568.59
2023-04-06T09:58:11.314Z,94569.06
2023-04-06T10:01:16.673Z,94555.00
2023-04-06T10:03:53.028Z,94563.78
2023-04-06T10:06:26.717Z,94559.28
2023-04-06T10:08:55.592Z,94565.38
2023-04-06T10:11:28.551Z,94562.97
2023-04-06T10:13:58.031Z,94554.44
2023-04-06T10:16:30.566Z,94558.94
2023-04-06T10:19:05.665Z,94553.66
2023-04-06T10:21:35.679Z,94558.28
2023-04-06T10:24:11.848Z,94561.97
2023-04-06T10:26:41.239Z,94561.88
2023-04-06T10:29:11.259Z,94556.00
2023-04-06T10:31:45.156Z,94553.09
2023-04-06T10:34:12.181Z,94556.00
2023-04-06T10:36:39.778Z,94554.41
2023-04-06T10:39:09.521Z,94556.69
2023-04-06T10:41:49.974Z,94552.41
2023-04-06T10:44:24.550Z,94550.88
2023-04-06T10:47:03.761Z,94556.19
2023-04-06T10:49:30.661Z,94551.38
2023-04-06T10:51:58.816Z,94555.06
2023-04-06T10:54:28.878Z,94548.94
2023-04-06T10:56:57.873Z,94595.44
2023-04-06T10:59:29.337Z,94549.03
2023-04-06T11:01:57.474Z,94548.22
2023-04-06T11:04:27.139Z,94537.88
2023-04-06T11:06:55.010Z,94543.06
2023-04-06T11:09:28.487Z,94540.91
2023-04-06T11:11:57.989Z,94540.31
2023-04-06T11:14:26.963Z,94540.31
2023-04-06T11:16:55.940Z,94533.41
2023-04-06T11:19:23.776Z,94535.00
2023-04-06T11:21:52.801Z,94519.59
2023-04-06T11:24:21.097Z,94533.09
2023-04-06T11:26:53.418Z,94524.34
2023-04-06T11:29:26.748Z,94520.75
2023-04-06T11:31:54.738Z,94523.50
2023-04-06T11:34:25.369Z,94530.88
2023-04-06T11:36:59.030Z,94517.63
2023-04-06T11:39:32.859Z,94519.13
2023-04-06T11:42:04.989Z,94511.56
2023-04-06T11:44:39.636Z,94522.63
2023-04-06T11:47:10.836Z,94519.41
2023-04-06T11:49:41.842Z,94514.69
2023-04-06T11:52:20.866Z,94513.66
2023-04-06T11:54:49.529Z,94513.31
2023-04-06T11:57:19.352Z,94510.88
2023-04-06T11:59:46.581Z,94510.88
2023-04-06T12:02:13.412Z,94506.41
2023-04-06T12:04:43.632Z,94512.97
2023-04-06T12:07:13.633Z,94505.59
2023-04-06T12:09:45.072Z,94508.50
2023-04-06T12:12:11.685Z,94500.78
2023-04-06T12:14:40.485Z,94507.09
2023-04-06T12:17:07.274Z,94504.09
2023-04-06T12:19:35.262Z,94501.47
2023-04-06T12:22:01.909Z,94501.78
2023-04-06T12:24:29.665Z,94507.06
2023-04-06T12:27:08.567Z,94499.38
2023-04-06T12:29:39.175Z,94502.59
2023-04-06T12:32:08.030Z,94505.00
2023-04-06T12:34:34.777Z,94504.28
2023-04-06T12:37:03.815Z,94505.66
2023-04-06T12:39:31.226Z,94496.47
2023-04-06T12:41:58.285Z,94488.03
2023-04-06T12:44:26.317Z,94498.16
2023-04-06T12:46:56.640Z,94488.69
2023-04-06T12:49:26.826Z,94482.13
2023-04-06T12:51:53.701Z,94483.09
2023-04-06T12:54:22.010Z,94480.38
2023-04-06T12:56:52.943Z,94485.84
2023-04-06T12:59:26.401Z,94486.63
2023-04-06T13:01:57.380Z,94479.50
2023-04-06T13:04:27.867Z,94474.78
2023-04-06T13:06:56.942Z,94469.47
2023-04-06T13:09:27.233Z,94479.03
2023-04-06T13:11:53.904Z,94470.28
2023-04-06T13:14:24.537Z,94481.69
2023-04-06T13:16:56.060Z,94475.25
2023-04-06T13:19:29.653Z,94466.75
2023-04-06T13:21:58.804Z,94471.50
2023-04-06T13:24:27.193Z,94470.44
2023-04-06T13:26:55.319Z,94475.16
2023-04-06T13:29:24.485Z,94474.59
2023-04-06T13:31:53.848Z,94473.81
2023-04-06T13:34:25.349Z,94472.97
2023-04-06T13:36:52.323Z,94466.66
2023-04-06T13:39:20.407Z,94472.19
2023-04-06T13:41:49.457Z,94469.00
2023-04-06T13:44:16.362Z,94469.78
2023-04-06T13:46:47.074Z,94466.56
2023-04-06T13:49:19.070Z,94457.81
2023-04-06T13:51:48.978Z,94468.88
2023-04-06T13:54:20.746Z,94469.91
2023-04-06T13:56:52.767Z,94461.41
2023-04-06T13:59:22.432Z,94459.00
2023-04-06T14:01:51.785Z,94461.09
2023-04-06T14:04:23.770Z,94457.88
2023-04-06T14:06:51.666Z,94460.53
2023-04-06T14:09:20.686Z,94465.00
2023-04-06T14:11:50.544Z,94458.91
2023-04-06T14:14:18.038Z,94454.41
2023-04-06T14:16:47.954Z,94453.84
2023-04-06T14:19:19.284Z,94452.25
2023-04-06T14:21:46.559Z,94455.94
2023-04-06T14:24:17.316Z,94449.84
2023-04-06T14:26:48.588Z,94456.75
2023-04-06T14:29:18.099Z,94458.56
2023-04-06T14:31:51.074Z,94467.34
2023-04-06T14:34:18.255Z,94457.53
2023-04-06T14:36:47.414Z,94459.97
2023-04-06T14:39:14.229Z,94459.97
2023-04-06T14:41:41.916Z,94463.16
2023-04-06T14:44:13.158Z,94457.88
2023-04-06T14:46:45.520Z,94459.47
2023-04-06T14:49:12.312Z,94462.69
2023-04-06T14:51:43.879Z,94462.69
2023-04-06T14:54:15.896Z,94472.00
2023-04-06T14:56:44.803Z,94471.19
2023-04-06T14:59:15.568Z,94462.22
2023-04-06T15:01:47.056Z,94472.00
2023-04-06T15:04:15.180Z,94473.84
2023-04-06T15:06:44.292Z,94475.22
2023-04-06T15:09:12.650Z,94469.13
2023-04-06T15:11:44.576Z,94477.06
2023-04-06T15:14:11.301Z,94478.91
2023-04-06T15:16:40.864Z,94482.38
2023-04-06T15:19:09.652Z,94475.44
2023-04-06T15:21:38.848Z,94488.03
2023-04-06T15:24:07.399Z,94486.91
2023-04-06T15:26:38.655Z,94494.38
2023-04-06T15:29:10.110Z,94499.06
2023-04-06T15:31:38.748Z,94491.91
2023-04-06T15:34:08.629Z,94499.28
2023-04-06T15:36:37.750Z,94496.88
2023-04-06T15:39:07.047Z,94497.66
2023-04-06T15:41:36.638Z,94499.75
2023-04-06T15:44:05.404Z,94499.75
2023-04-06T15:46:34.487Z,94501.34
2023-04-06T15:49:01.693Z,94510.34
2023-04-06T15:51:31.603Z,94505.88
2023-04-06T15:53:58.757Z,94510.34
2023-04-06T15:56:27.820Z,94511.88
2023-04-06T15:58:57.688Z,94508.88
2023-04-06T16:01:24.408Z,94514.44
2023-04-06T16:03:51.203Z,94512.22
2023-04-06T16:06:19.269Z,94526.97
2023-04-06T16:08:49.202Z,94524.00
2023-04-06T16:11:18.461Z,94529.53
2023-04-06T16:13:50.078Z,94526.88
2023-04-06T16:16:22.104Z,94539.66
2023-04-06T16:18:53.578Z,94532.38
2023-04-06T16:21:24.936Z,94535.59
2023-04-06T16:23:51.522Z,94528.59
2023-04-06T16:26:18.322Z,94537.78
2023-04-06T16:28:47.193Z,94534.09
2023-04-06T16:31:22.877Z,94545.94
2023-04-06T16:33:50.602Z,94538.25
2023-04-06T16:36:30.163Z,94541.94
2023-04-06T16:38:59.655Z,94543.19
2023-04-06T16:41:29.305Z,94541.59
2023-04-06T16:43:58.342Z,94548.16
2023-04-06T16:46:34.930Z,94541.25
2023-04-06T16:49:04.965Z,94548.16
2023-04-06T16:51:37.182Z,94546.56
2023-04-06T16:54:04.145Z,94552.88
2023-04-06T16:56:31.678Z,94545.41
2023-04-06T16:58:58.408Z,94551.75
2023-04-06T17:01:30.896Z,94554.84
2023-04-06T17:03:59.912Z,94560.13
2023-04-06T17:06:28.949Z,94558.44
2023-04-06T17:08:55.822Z,94565.09
2023-04-06T17:11:31.710Z,94567.50
2023-04-06T17:14:02.764Z,94571.19
2023-04-06T17:16:31.688Z,94571.19
2023-04-06T17:19:00.935Z,94574.88
2023-04-06T17:21:30.935Z,94583.84
2023-04-06T17:23:59.813Z,94595.25
2023-04-06T17:26:28.765Z,94598.13
2023-04-06T17:28:57.603Z,94606.06
2023-04-06T17:31:24.184Z,94608.72
2023-04-06T17:33:54.369Z,94609.19
2023-04-06T17:36:24.368Z,94611.84
2023-04-06T17:38:51.346Z,94616.56
2023-04-06T17:41:20.228Z,94616.56
2023-04-06T17:43:51.709Z,94620.25
2023-04-06T17:46:20.752Z,94618.59
2023-04-06T17:48:52.010Z,94623.09
2023-04-06T17:51:21.480Z,94622.28
2023-04-06T17:53:50.449Z,94625.19
2023-04-06T17:56:24.402Z,94628.03
2023-04-06T17:58:53.165Z,94621.16
2023-04-06T18:01:22.004Z,94632.53
2023-04-06T18:03:53.643Z,94627.69
2023-04-06T18:06:20.592Z,94633.22
2023-04-06T18:08:49.376Z,94635.88
2023-04-06T18:11:19.756Z,94644.03
2023-04-06T18:13:46.363Z,94641.59
2023-04-06T18:16:16.422Z,94653.19
2023-04-06T18:18:43.178Z,94653.19
2023-04-06T18:21:12.349Z,94652.88
2023-04-06T18:23:39.063Z,94660.81
2023-04-06T18:26:06.132Z,94659.97
2023-04-06T18:28:33.473Z,94656.78
2023-04-06T18:31:02.464Z,94660.44
2023-04-06T18:33:32.765Z,94660.44
2023-04-06T18:36:02.076Z,94666.78
2023-04-06T18:38:31.504Z,94660.91
2023-04-06T18:40:59.012Z,94664.59
2023-04-06T18:43:28.540Z,94668.84
2023-04-06T18:45:55.365Z,94669.63
2023-04-06T18:48:22.206Z,94674.34
2023-04-06T18:50:57.796Z,94664.59
2023-04-06T18:53:24.830Z,94676.22
2023-04-06T18:55:55.109Z,94673.56
2023-04-06T18:58:25.033Z,94678.84
2023-04-06T19:00:52.799Z,94680.91
2023-04-06T19:03:22.591Z,94674.81
2023-04-06T19:05:55.152Z,94684.56
2023-04-06T19:11:07.090Z,94676.06
2023-04-06T19:13:38.256Z,94686.66
2023-04-06T19:16:10.917Z,94686.66
2023-04-06T19:18:46.493Z,94688.50
2023-04-06T19:21:41.091Z,94680.78
2023-04-06T19:24:11.384Z,94683.44
2023-04-06T19:26:42.611Z,94687.94
2023-04-06T19:29:10.874Z,94673.88
2023-04-06T19:31:40.847Z,94681.81
2023-04-06T19:34:08.178Z,94681.00
2023-04-06T19:36:36.927Z,94687.31
2023-04-06T19:39:06.247Z,94692.41
2023-04-06T19:41:38.387Z,94690.78
2023-04-06T19:44:05.011Z,94690.78
2023-04-06T19:46:34.710Z,94690.22
2023-04-06T19:49:05.498Z,94692.84
2023-04-06T19:51:36.321Z,94697.31
2023-04-06T19:54:11.117Z,94692.84
2023-04-06T19:56:40.550Z,94692.84
2023-04-06T19:59:07.396Z,94705.50
2023-04-06T20:01:58.305Z,94694.94
2023-04-06T20:04:30.236Z,94706.28
2023-04-06T20:06:59.683Z,94701.25
2023-04-06T20:09:28.629Z,94694.09
2023-04-06T20:11:58.385Z,94695.97
2023-04-06T20:14:31.937Z,94697.56
2023-04-06T20:17:02.943Z,94696.97
2023-04-06T20:19:30.622Z,94696.97
2023-04-06T20:22:03.543Z,94699.63
2023-04-06T20:24:38.834Z,94696.19
2023-04-06T20:27:25.515Z,94695.34
2023-04-06T20:29:55.447Z,94695.34
2023-04-06T20:32:24.642Z,94690.06
2023-04-06T20:34:52.680Z,94693.75
2023-04-06T20:37:22.670Z,94703.53
2023-04-06T20:39:52.456Z,94706.97
2023-04-06T20:42:21.662Z,94713.28
2023-04-06T20:44:53.252Z,94714.91
2023-04-06T20:47:25.572Z,94711.69
2023-04-06T20:49:55.736Z,94711.88
2023-04-06T20:52:23.830Z,94713.53
2023-04-06T20:54:56.892Z,94714.13
2023-04-06T20:57:24.960Z,94717.31
2023-04-06T21:08:43.467Z,94715.78
2023-04-06T21:11:11.588Z,94724.25
2023-04-06T21:13:43.837Z,94718.94
2023-04-06T21:16:11.814Z,94716.22
2023-04-06T21:18:38.936Z,94718.03
2023-04-06T21:21:10.888Z,94721.91
2023-04-06T21:23:42.271Z,94720.69
2023-04-06T21:26:14.611Z,94718.19
2023-04-06T21:28:43.578Z,94719.53
2023-04-06T21:34:03.362Z,94712.56
2023-04-06T21:36:33.351Z,94720.28
2023-04-06T21:39:00.720Z,94716.44
2023-04-06T21:41:32.811Z,94714.63
2023-04-06T21:44:01.772Z,94716.22
2023-04-06T21:46:31.630Z,94717.84
2023-04-06T21:49:03.838Z,94715.78
2023-04-06T21:51:33.763Z,94719.00
2023-04-06T21:54:02.921Z,94711.50
2023-04-06T21:56:30.217Z,94707.00
2023-04-06T21:58:59.646Z,94709.41
2023-04-06T22:01:28.822Z,94707.59
2023-04-06T22:04:00.532Z,94705.53
2023-04-06T22:06:30.368Z,94705.53
2023-04-06T22:09:00.407Z,94706.28
2023-04-06T22:11:27.039Z,94705.47
2023-04-06T22:13:56.316Z,94703.59
2023-04-06T22:16:23.132Z,94699.31
2023-04-06T22:18:51.225Z,94695.84
2023-04-06T22:21:19.544Z,94702.06
2023-04-06T22:23:49.753Z,94702.25
2023-04-06T22:26:16.513Z,94690.25
2023-04-06T22:28:43.277Z,94695.47
2023-04-06T22:31:14.703Z,94691.19
2023-04-06T22:33:42.362Z,94690.75
2023-04-06T22:36:11.685Z,94696.22
2023-04-06T22:38:43.981Z,94694.50
2023-04-06T22:41:11.034Z,94694.13
2023-04-06T22:43:37.917Z,94697.09
2023-04-06T22:46:05.983Z,94696.47
2023-04-06T22:48:37.944Z,94692.41
2023-04-06T22:51:08.518Z,94699.63
2023-04-06T22:53:35.395Z,94693.94
2023-04-06T22:56:02.433Z,94696.16
2023-04-06T22:58:31.421Z,94685.38
2023-04-06T23:01:01.274Z,94692.66
2023-04-06T23:03:32.569Z,94687.38
2023-04-06T23:06:00.448Z,94690.19
2023-04-06T23:08:38.115Z,94688.59
2023-04-06T23:11:14.384Z,94686.09
2023-04-06T23:13:43.377Z,94678.78
2023-04-06T23:16:15.195Z,94679.16
2023-04-06T23:18:47.146Z,94680.75
2023-04-06T23:21:16.388Z,94680.56
2023-04-06T23:23:43.039Z,94681.13
2023-04-06T23:26:09.784Z,94684.13
2023-04-06T23:28:38.789Z,94677.03
2023-04-06T23:31:07.771Z,94687.97
2023-04-06T23:33:36.953Z,94674.53
2023-04-06T23:36:03.783Z,94677.16
2023-04-06T23:38:37.112Z,94677.78
2023-04-06T23:41:05.926Z,94681.78
2023-04-06T23:43:32.577Z,94682.63
2023-04-06T23:46:01.957Z,94678.94
2023-04-06T23:48:33.898Z,94680.56
2023-04-06T23:51:05.621Z,94676.88
2023-04-06T23:53:42.430Z,94681.72
2023-04-06T23:56:11.233Z,94675.66
2023-04-06T23:58:47.696Z,94672.78
